createdAt,value
2018-02-07T00:00:05.530Z,1.62
2018-02-07T00:05:07.598Z,1.52
2018-02-07T00:10:08.935Z,1.64
2018-02-07T00:15:10.363Z,1.64
2018-02-07T00:20:18.611Z,1.75
2018-02-07T00:25:19.971Z,1.44
2018-02-07T00:30:21.303Z,1.37
2018-02-07T00:35:22.655Z,1.36
2018-02-07T00:40:23.964Z,1.34
2018-02-07T00:45:25.312Z,1.14
2018-02-07T00:50:27.373Z,1.14
2018-02-07T00:55:28.734Z,1.16
2018-02-07T01:00:30.092Z,1.17
2018-02-07T01:05:32.181Z,1.01
2018-02-07T01:10:33.541Z,1.14
2018-02-07T01:15:34.886Z,1.12
2018-02-07T01:20:36.951Z,1.13
2018-02-07T01:25:38.303Z,1.11
2018-02-07T01:30:39.683Z,0.99
2018-02-07T01:35:41.032Z,0.88
2018-02-07T01:40:42.429Z,0.91
2018-02-07T01:45:43.851Z,0.76
2018-02-07T01:50:45.175Z,0.92
2018-02-07T01:55:46.545Z,0.88
2018-02-07T02:00:47.911Z,0.91
2018-02-07T02:05:49.979Z,0.85
2018-02-07T02:10:51.302Z,0.70
2018-02-07T02:15:53.366Z,0.66
2018-02-07T02:20:54.719Z,0.51
2018-02-07T02:25:56.047Z,0.50
2018-02-07T02:30:57.392Z,0.42
2018-02-07T02:36:17.236Z,0.35
2018-02-07T02:41:18.547Z,0.09
2018-02-07T02:46:19.884Z,0.04
2018-02-07T02:51:21.957Z,0.24
2018-02-07T02:56:23.267Z,0.24
2018-02-07T03:01:24.574Z,0.28
2018-02-07T03:06:26.618Z,0.19
2018-02-07T03:11:27.947Z,0.22
2018-02-07T03:16:29.296Z,0.10
2018-02-07T03:21:30.620Z,0.04
2018-02-07T03:26:31.951Z,-0.14
2018-02-07T03:31:33.313Z,-0.02
2018-02-07T03:36:34.644Z,0.15
2018-02-07T03:41:36.000Z,0.12
2018-02-07T03:46:38.104Z,-0.07
2018-02-07T03:51:40.166Z,-0.08
2018-02-07T03:56:41.503Z,-0.15
2018-02-07T04:01:43.636Z,-0.25
2018-02-07T04:06:44.951Z,-0.26
2018-02-07T04:11:46.291Z,-0.49
2018-02-07T04:16:48.404Z,-0.39
2018-02-07T04:21:49.737Z,-0.44
2018-02-07T04:26:51.103Z,-0.44
2018-02-07T04:31:52.452Z,-0.54
2018-02-07T04:36:53.813Z,-0.55
2018-02-07T04:41:55.152Z,-0.58
2018-02-07T04:46:56.483Z,-0.49
2018-02-07T04:51:57.796Z,-0.49
2018-02-07T04:56:59.126Z,-0.57
2018-02-07T05:02:01.257Z,-0.58
2018-02-07T05:07:02.615Z,-0.64
2018-02-07T05:12:04.733Z,-0.55
2018-02-07T05:17:06.096Z,-0.76
2018-02-07T05:22:08.277Z,-0.79
2018-02-07T05:27:10.548Z,-0.61
2018-02-07T05:32:11.982Z,-0.68
2018-02-07T05:37:14.644Z,-0.70
2018-02-07T05:42:16.722Z,-0.77
2018-02-07T05:47:19.314Z,-0.72
2018-02-07T05:52:21.401Z,-0.72
2018-02-07T05:57:23.867Z,-0.90
2018-02-07T06:02:26.361Z,-0.98
2018-02-07T06:07:28.787Z,-0.79
2018-02-07T06:12:31.870Z,-0.92
2018-02-07T06:17:39.192Z,-0.78
2018-02-07T06:22:41.523Z,-0.94
2018-02-07T06:27:42.882Z,-1.07
2018-02-07T06:32:44.313Z,-1.13
2018-02-07T06:37:45.706Z,-1.05
2018-02-07T06:42:47.075Z,-1.13
2018-02-07T06:47:49.155Z,-0.99
2018-02-07T06:52:50.478Z,-1.03
2018-02-07T06:57:52.548Z,-1.05
2018-02-07T07:02:54.722Z,-1.07
2018-02-07T07:07:56.052Z,-1.16
2018-02-07T07:12:57.390Z,-1.12
2018-02-07T07:17:58.709Z,-1.28
2018-02-07T07:23:00.039Z,-1.29
2018-02-07T07:28:01.530Z,-1.37
2018-02-07T07:33:03.591Z,-1.19
2018-02-07T07:38:04.932Z,-1.47
2018-02-07T07:43:06.987Z,-1.45
2018-02-07T07:48:08.316Z,-1.22
2018-02-07T07:53:09.664Z,-1.16
2018-02-07T07:58:11.116Z,-1.28
2018-02-07T08:03:12.488Z,-1.35
2018-02-07T08:08:13.817Z,-1.28
2018-02-07T08:13:15.172Z,-1.22
2018-02-07T08:18:17.267Z,-1.37
2018-02-07T08:23:18.591Z,-1.29
2018-02-07T08:28:19.967Z,-1.17
2018-02-07T08:33:22.049Z,-1.10
2018-02-07T08:38:23.387Z,-1.11
2018-02-07T08:43:24.736Z,-1.07
2018-02-07T08:48:26.115Z,-0.88
2018-02-07T08:53:27.539Z,-0.60
2018-02-07T08:58:29.630Z,-0.46
2018-02-07T09:03:30.971Z,-0.38
2018-02-07T09:08:32.347Z,-0.19
2018-02-07T09:13:33.685Z,-0.30
2018-02-07T09:18:41.954Z,-0.12
2018-02-07T09:23:44.061Z,0.00
2018-02-07T09:28:45.462Z,0.01
2018-02-07T09:33:47.531Z,0.05
2018-02-07T09:38:48.867Z,0.14
2018-02-07T09:43:50.182Z,0.33
2018-02-07T09:48:51.544Z,0.66
2018-02-07T09:53:53.589Z,0.70
2018-02-07T09:58:54.917Z,0.81
2018-02-07T10:03:56.242Z,0.89
2018-02-07T10:08:57.564Z,1.21
2018-02-07T10:13:58.902Z,1.40
2018-02-07T10:19:00.970Z,1.58
2018-02-07T10:24:02.356Z,1.63
2018-02-07T10:29:03.706Z,1.67
2018-02-07T10:34:05.059Z,2.06
2018-02-07T10:39:06.394Z,1.94
2018-02-07T10:44:07.714Z,2.23
2018-02-07T10:49:09.053Z,2.04
2018-02-07T10:54:10.398Z,2.45
2018-02-07T10:59:11.767Z,2.24
2018-02-07T11:04:13.180Z,2.18
2018-02-07T11:09:14.518Z,2.40
2018-02-07T11:14:15.864Z,2.47
2018-02-07T11:19:17.270Z,2.86
2018-02-07T11:24:18.592Z,2.90
2018-02-07T11:29:19.931Z,3.12
2018-02-07T11:34:21.287Z,3.41
2018-02-07T11:39:22.657Z,3.41
2018-02-07T11:44:23.958Z,3.52
2018-02-07T11:49:25.285Z,3.53
2018-02-07T11:54:26.611Z,3.42
2018-02-07T11:59:28.973Z,3.54
2018-02-07T12:04:30.308Z,3.64
2018-02-07T12:09:32.406Z,3.74
2018-02-07T12:14:33.715Z,3.71
2018-02-07T12:19:35.808Z,3.87
2018-02-07T12:24:37.920Z,3.70
2018-02-07T12:29:40.005Z,3.75
2018-02-07T12:34:41.348Z,3.97
2018-02-07T12:39:42.991Z,4.14
2018-02-07T12:44:44.361Z,4.14
2018-02-07T12:49:45.726Z,4.20
2018-02-07T12:54:47.348Z,4.21
2018-02-07T12:59:48.676Z,4.31
2018-02-07T13:04:50.023Z,4.44
2018-02-07T13:09:51.379Z,4.81
2018-02-07T13:14:52.762Z,4.76
2018-02-07T13:19:54.079Z,4.67
2018-02-07T13:24:55.387Z,4.76
2018-02-07T13:29:56.715Z,4.79
2018-02-07T13:34:58.045Z,4.73
2018-02-07T13:39:59.418Z,4.73
2018-02-07T13:45:00.764Z,4.85
2018-02-07T13:50:02.163Z,4.80
2018-02-07T13:55:03.464Z,4.80
2018-02-07T14:00:05.610Z,4.77
2018-02-07T14:05:06.932Z,4.66
2018-02-07T14:10:08.267Z,4.67
2018-02-07T14:15:09.823Z,4.70
2018-02-07T14:20:11.250Z,4.55
2018-02-07T14:25:13.329Z,4.50
2018-02-07T14:30:14.672Z,4.56
2018-02-07T14:35:16.012Z,4.54
2018-02-07T14:40:17.370Z,4.43
2018-02-07T14:45:18.723Z,4.39
2018-02-07T14:50:20.096Z,4.41
2018-02-07T14:55:22.161Z,4.44
2018-02-07T15:00:23.527Z,4.39
2018-02-07T15:05:24.844Z,4.42
2018-02-07T15:10:26.224Z,4.32
2018-02-07T15:15:27.597Z,4.22
2018-02-07T15:20:28.935Z,4.00
2018-02-07T15:25:30.326Z,4.14
2018-02-07T15:30:31.651Z,4.03
2018-02-07T15:35:33.004Z,4.20
2018-02-07T15:40:34.490Z,4.18
2018-02-07T15:45:35.847Z,3.96
2018-02-07T15:50:37.158Z,3.99
2018-02-07T15:55:38.628Z,3.63
2018-02-07T16:00:40.039Z,3.60
2018-02-07T16:05:41.416Z,3.58
2018-02-07T16:10:42.748Z,3.31
2018-02-07T16:15:44.128Z,3.21
2018-02-07T16:20:45.553Z,3.14
2018-02-07T16:25:47.733Z,2.98
2018-02-07T16:30:49.076Z,2.90
2018-02-07T16:35:50.439Z,2.83
2018-02-07T16:40:51.785Z,2.78
2018-02-07T16:45:53.143Z,2.55
2018-02-07T16:50:54.534Z,2.55
2018-02-07T16:55:55.893Z,2.44
2018-02-07T17:00:57.240Z,2.55
2018-02-07T17:05:58.588Z,2.38
2018-02-07T17:10:59.957Z,2.43
2018-02-07T17:16:02.059Z,2.38
2018-02-07T17:21:03.414Z,2.33
2018-02-07T17:26:05.128Z,2.28
2018-02-07T17:31:07.902Z,2.10
2018-02-07T17:36:09.810Z,2.15
2018-02-07T17:41:11.829Z,2.09
2018-02-07T17:46:13.798Z,2.13
2018-02-07T17:51:15.326Z,1.95
2018-02-07T17:56:17.610Z,1.93
2018-02-07T18:01:20.029Z,1.81
2018-02-07T18:06:22.428Z,1.77
2018-02-07T18:11:24.556Z,1.70
2018-02-07T18:16:25.946Z,1.74
2018-02-07T18:21:27.571Z,1.57
2018-02-07T18:26:28.982Z,1.53
2018-02-07T18:31:30.352Z,1.47
2018-02-07T18:36:31.747Z,1.51
2018-02-07T18:41:33.755Z,1.31
2018-02-07T18:46:35.148Z,1.30
2018-02-07T18:51:36.505Z,1.13
2018-02-07T18:56:37.869Z,1.25
2018-02-07T19:01:40.007Z,1.22
2018-02-07T19:06:41.395Z,1.15
2018-02-07T19:11:42.763Z,1.11
2018-02-07T19:16:44.931Z,1.15
2018-02-07T19:21:47.598Z,1.10
2018-02-07T19:26:49.684Z,1.15
2018-02-07T19:31:51.093Z,1.01
2018-02-07T19:36:52.496Z,1.01
2018-02-07T19:41:54.632Z,0.98
2018-02-07T19:46:56.002Z,0.97
2018-02-07T19:51:57.352Z,0.84
2018-02-07T19:56:58.779Z,0.87
2018-02-07T20:02:00.678Z,0.80
2018-02-07T20:07:02.843Z,0.68
2018-02-07T20:12:04.262Z,0.44
2018-02-07T20:17:05.696Z,0.37
2018-02-07T20:22:07.030Z,0.52
2018-02-07T20:27:08.503Z,0.55
2018-02-07T20:32:09.852Z,0.48
2018-02-07T20:37:11.229Z,0.47
2018-02-07T20:42:13.351Z,0.54
2018-02-07T20:47:14.728Z,0.48
2018-02-07T20:52:16.862Z,0.32
2018-02-07T20:57:18.246Z,0.41
2018-02-07T21:02:19.659Z,0.03
2018-02-07T21:07:21.016Z,0.31
2018-02-07T21:12:22.382Z,0.25
2018-02-07T21:17:24.507Z,0.20
2018-02-07T21:22:25.883Z,0.13
2018-02-07T21:27:28.003Z,0.02
2018-02-07T21:32:29.399Z,-0.04
2018-02-07T21:37:30.794Z,-0.18
2018-02-07T21:42:32.475Z,-0.29
2018-02-07T21:47:34.596Z,-0.19
2018-02-07T21:52:35.943Z,-0.25
2018-02-07T21:57:37.275Z,-0.27
2018-02-07T22:02:38.635Z,-0.46
2018-02-07T22:07:40.009Z,-0.40
2018-02-07T22:12:41.358Z,-0.46
2018-02-07T22:17:42.795Z,-0.54
2018-02-07T22:22:44.326Z,-0.54
2018-02-07T22:27:45.853Z,-0.67
2018-02-07T22:32:47.257Z,-0.80
2018-02-07T22:37:48.642Z,-0.77
2018-02-07T22:42:50.014Z,-0.82
2018-02-07T22:47:51.383Z,-0.86
2018-02-07T22:52:52.746Z,-1.08
2018-02-07T22:57:54.144Z,-1.22
2018-02-07T23:02:55.459Z,-1.27
2018-02-07T23:07:56.939Z,-1.24
2018-02-07T23:12:59.026Z,-1.17
2018-02-07T23:18:00.443Z,-1.11
2018-02-07T23:23:01.753Z,-1.26
2018-02-07T23:28:03.113Z,-1.32
2018-02-07T23:33:05.246Z,-1.42
2018-02-07T23:38:06.560Z,-1.45
2018-02-07T23:43:07.893Z,-1.48
2018-02-07T23:48:09.295Z,-1.52
2018-02-07T23:53:11.412Z,-1.36
2018-02-07T23:58:12.775Z,-1.32
